Time;durP1;ratioP1;P1;durP2;ratioP2;P2;SDS_P1;SDS_P2;PMS_P1;PMS_P2;Temp;Humidity;BMP_temperature;BMP_pressure;BME280_temperature;BME280_humidity;BME280_pressure;Samples;Min_cycle;Max_cycle;Signal;HPM_P1;HPM_P2
2023/01/10 00:00:10;;;;;;;;;;;6.80;99.90;7.30;100040.00;;;;341533;28;88644;-91
2023/01/10 00:00:23;;;;;;;;;;;6.80;99.90;7.40;100043.00;;;;343410;28;83383;-92
2023/01/10 00:00:36;;;;;;;;;;;6.90;99.90;7.40;100040.00;;;;345806;28;88164;-92
2023/01/10 00:00:48;;;;;;;;;;;6.90;99.90;7.40;100043.00;;;;341999;28;83483;-91
2023/01/10 00:01:05;;;;;;;;;;;6.80;99.90;7.40;100040.00;;;;341626;28;89186;-92
2023/01/10 00:01:17;;;;;;;;;;;6.90;99.90;7.30;100045.00;;;;344516;28;83460;-91
2023/01/10 00:01:28;;;;;;;;;;;6.90;99.90;7.40;100043.00;;;;344407;28;90412;-91
2023/01/10 00:01:40;;;;;;;;;;;6.80;99.90;7.40;100042.00;;;;343300;28;83346;-91
2023/01/10 00:01:52;;;;;;;;;;;6.90;99.90;7.50;100048.00;;;;342878;28;90573;-91
2023/01/10 00:02:03;;;;;;;;;;;6.90;99.90;7.50;100047.00;;;;342070;28;83267;-92
2023/01/10 00:02:16;;;;;;;;;;;6.90;99.90;7.40;100044.00;;;;340287;28;90024;-92
2023/01/10 00:02:28;;;;;;;;;;;6.90;99.90;7.40;100048.00;;;;342083;28;82448;-92
2023/01/10 00:02:40;;;;;;;;;;;6.90;99.90;7.30;100046.00;;;;341450;28;91795;-91
2023/01/10 00:02:52;;;;;;;;;;;6.90;99.90;7.30;100052.00;;;;342006;28;83420;-91
2023/01/10 00:03:08;;;;;;;;;;;6.90;99.90;7.30;100048.00;;;;342811;28;88218;-91
2023/01/10 00:03:20;;;;;;;;;;;6.90;99.90;7.30;100044.00;;;;341921;28;83308;-91
2023/01/10 00:03:31;;;;;;;;;;;6.90;99.90;7.30;100043.00;;;;341560;28;88341;-91
2023/01/10 00:03:43;;;;;;;;;;;6.90;99.90;7.40;100051.00;;;;345862;28;83535;-91
2023/01/10 00:03:55;;;;;;;;;;;6.80;99.90;7.40;100045.00;;;;341655;28;89179;-92
2023/01/10 00:04:07;;;;;;;;;;;6.90;99.90;7.40;100050.00;;;;342013;28;82559;-92
2023/01/10 00:04:18;;;;;;;;;;;6.90;99.90;7.40;100054.00;;;;341467;28;90340;-92
2023/01/10 00:04:30;;;;;;;;;;;6.90;99.90;7.40;100044.00;;;;343445;28;82497;-92
2023/01/10 00:04:42;;;;;;;;;;;6.90;99.90;7.30;100049.00;;;;341573;28;90127;-91
2023/01/10 00:04:54;;;;;;;;;;;6.90;99.90;7.40;100050.00;;;;343115;28;83477;-92
2023/01/10 00:05:06;;;;;;;;;;;6.90;99.90;7.40;100047.00;;;;343054;28;87783;-91
2023/01/10 00:05:18;;;;;;;;;;;6.90;99.90;7.40;100044.00;;;;343114;28;82707;-91
2023/01/10 00:05:30;;;;;;;;;;;6.90;99.90;7.40;100051.00;;;;341791;28;88411;-91
2023/01/10 00:05:42;;;;;;;;;;;6.90;99.90;7.30;100049.00;;;;343086;28;83416;-91
2023/01/10 00:05:54;;;;;;;;;;;6.90;99.90;7.30;100050.00;;;;343078;28;88034;-92
2023/01/10 00:06:06;;;;;;;;;;;6.90;99.90;7.30;100053.00;;;;342085;28;82302;-90
2023/01/10 00:06:18;;;;;;;;;;;6.90;99.90;7.40;100047.00;;;;341561;28;90807;-92
2023/01/10 00:06:30;;;;;;;;;;;6.90;99.90;7.40;100055.00;;;;343429;28;82492;-92
2023/01/10 00:06:42;;;;;;;;;;;6.90;99.90;7.40;100051.00;;;;342748;28;89699;-92
2023/01/10 00:06:54;;;;;;;;;;;6.90;99.90;7.30;100049.00;;;;342996;28;83560;-91
2023/01/10 00:07:06;;;;;;;;;;;6.80;99.90;7.30;100053.00;;;;341410;28;87250;-91
2023/01/10 00:07:18;;;;;;;;;;;6.90;99.90;7.40;100043.00;;;;343459;28;83309;-92
2023/01/10 00:07:30;;;;;;;;;;;6.90;99.90;7.40;100050.00;;;;342719;28;90566;-91
2023/01/10 00:07:42;;;;;;;;;;;6.90;99.90;7.40;100050.00;;;;343288;28;83383;-91
2023/01/10 00:07:54;;;;;;;;;;;6.90;99.90;7.30;100048.00;;;;341707;28;88863;-91
2023/01/10 00:08:06;;;;;;;;;;;6.90;99.90;7.40;100052.00;;;;343199;28;83508;-91
2023/01/10 00:08:18;;;;;;;;;;;6.90;99.90;7.40;100049.00;;;;342780;28;90139;-91
2023/01/10 00:08:30;;;;;;;;;;;6.90;99.90;7.40;100058.00;;;;343449;28;83515;-92
2023/01/10 00:08:42;;;;;;;;;;;6.90;99.90;7.40;100049.00;;;;345777;28;87795;-92
2023/01/10 00:08:56;;;;;;;;;;;6.90;99.90;7.50;100046.00;;;;344695;28;83410;-91
2023/01/10 00:09:09;;;;;;;;;;;6.90;99.90;7.50;100049.00;;;;341703;28;88121;-92
2023/01/10 00:09:21;;;;;;;;;;;6.90;99.90;7.40;100044.00;;;;343433;28;83419;-92
2023/01/10 00:09:33;;;;;;;;;;;6.90;99.90;7.40;100047.00;;;;344423;28;88134;-91
2023/01/10 00:09:45;;;;;;;;;;;6.90;99.90;7.50;100053.00;;;;343331;28;83432;-92
2023/01/10 00:09:56;;;;;;;;;;;6.90;99.90;7.50;100056.00;;;;342903;28;89466;-91
2023/01/10 00:10:09;;;;;;;;;;;6.90;99.90;7.40;100047.00;;;;344261;28;83632;-91
2023/01/10 00:10:21;;;;;;;;;;;6.90;99.90;7.40;100047.00;;;;344093;28;89528;-91
2023/01/10 00:10:32;;;;;;;;;;;6.90;99.90;7.50;100052.00;;;;344763;28;82450;-91
2023/01/10 00:10:44;;;;;;;;;;;6.90;99.90;7.50;100051.00;;;;344092;28;89765;-92
2023/01/10 00:10:56;;;;;;;;;;;6.90;99.90;7.40;100057.00;;;;343237;28;83540;-92
2023/01/10 00:13:22;;;;;;;;;;;6.90;99.90;7.40;100059.00;;;;342956;28;89524;-91
2023/01/10 00:13:33;;;;;;;;;;;6.90;99.90;7.40;100057.00;;;;344775;28;83473;-91
2023/01/10 00:13:45;;;;;;;;;;;6.90;99.90;7.50;100055.00;;;;342637;28;92984;-91
2023/01/10 00:13:57;;;;;;;;;;;6.90;99.90;7.40;100056.00;;;;342045;28;83262;-91
2023/01/10 00:14:10;;;;;;;;;;;6.90;99.90;7.40;100054.00;;;;342954;28;89579;-91
2023/01/10 00:14:22;;;;;;;;;;;6.90;99.90;7.50;100056.00;;;;342128;28;82459;-92
2023/01/10 00:14:34;;;;;;;;;;;6.90;99.90;7.50;100052.00;;;;342745;28;89742;-92
2023/01/10 00:14:45;;;;;;;;;;;6.90;99.90;7.50;100068.00;;;;343209;28;83451;-91
2023/01/10 00:14:57;;;;;;;;;;;6.90;99.90;7.50;100068.00;;;;341534;28;89138;-92
2023/01/10 00:15:09;;;;;;;;;;;6.90;99.90;7.50;100066.00;;;;341778;28;83456;-91
2023/01/10 00:15:21;;;;;;;;;;;6.90;99.90;7.40;100056.00;;;;342952;28;91309;-91
2023/01/10 00:15:34;;;;;;;;;;;6.90;99.90;7.40;100062.00;;;;344791;28;83301;-91
2023/01/10 00:15:46;;;;;;;;;;;6.90;99.90;7.40;100064.00;;;;344221;28;89932;-90
2023/01/10 00:15:58;;;;;;;;;;;6.90;99.90;7.40;100062.00;;;;345923;28;82651;-91
2023/01/10 00:16:09;;;;;;;;;;;6.90;99.90;7.40;100073.00;;;;344183;28;88828;-91
2023/01/10 00:16:22;;;;;;;;;;;6.90;99.90;7.40;100063.00;;;;343344;28;83434;-91
2023/01/10 00:16:35;;;;;;;;;;;6.90;99.90;7.40;100057.00;;;;343051;28;88326;-92
2023/01/10 00:16:47;;;;;;;;;;;6.90;99.90;7.40;100067.00;;;;344454;28;83284;-91
2023/01/10 00:17:01;;;;;;;;;;;6.90;99.90;7.40;100080.00;;;;344401;28;89153;-91
2023/01/10 00:17:13;;;;;;;;;;;6.90;99.90;7.40;100063.00;;;;344261;28;83544;-92
2023/01/10 00:17:24;;;;;;;;;;;6.90;99.90;7.40;100069.00;;;;344113;28;90494;-92
2023/01/10 00:17:36;;;;;;;;;;;6.90;99.90;7.50;100069.00;;;;343211;28;83433;-91
2023/01/10 00:17:48;;;;;;;;;;;6.90;99.90;7.40;100058.00;;;;345482;28;90403;-91
2023/01/10 00:18:00;;;;;;;;;;;6.90;99.90;7.40;100080.00;;;;344584;28;83460;-91
2023/01/10 00:18:12;;;;;;;;;;;6.90;99.90;7.50;100076.00;;;;344180;28;88348;-91
2023/01/10 00:18:24;;;;;;;;;;;6.90;99.90;7.50;100073.00;;;;344827;28;82447;-91
2023/01/10 00:18:35;;;;;;;;;;;6.90;99.90;7.40;100075.00;;;;345525;28;90466;-92
2023/01/10 00:18:47;;;;;;;;;;;6.90;99.90;7.40;100077.00;;;;344724;28;83433;-91
2023/01/10 00:18:59;;;;;;;;;;;6.90;99.90;7.40;100077.00;;;;343719;28;89535;-92
2023/01/10 00:19:11;;;;;;;;;;;6.90;99.90;7.40;100075.00;;;;346347;28;82420;-90
2023/01/10 00:19:23;;;;;;;;;;;6.90;99.90;7.40;100075.00;;;;346976;28;89579;-90
2023/01/10 00:19:35;;;;;;;;;;;6.90;99.90;7.50;100059.00;;;;345960;28;82493;-91
2023/01/10 00:19:47;;;;;;;;;;;6.90;99.90;7.60;100076.00;;;;343223;28;88943;-92
2023/01/10 00:19:59;;;;;;;;;;;6.90;99.90;7.50;100068.00;;;;346157;28;82480;-93
2023/01/10 00:20:11;;;;;;;;;;;6.90;99.90;7.40;100074.00;;;;347031;28;89226;-91
2023/01/10 00:20:22;;;;;;;;;;;6.90;99.90;7.40;100070.00;;;;346148;28;83535;-91
2023/01/10 00:20:34;;;;;;;;;;;6.90;99.90;7.40;100075.00;;;;345650;28;90474;-91
2023/01/10 00:20:46;;;;;;;;;;;6.90;99.90;7.50;100080.00;;;;343526;28;82377;-90
2023/01/10 00:20:58;;;;;;;;;;;6.90;99.90;7.60;100077.00;;;;345891;28;88518;-91
2023/01/10 00:21:10;;;;;;;;;;;6.90;99.90;7.50;100074.00;;;;347732;28;82439;-91
2023/01/10 00:21:22;;;;;;;;;;;6.90;99.90;7.50;100081.00;;;;344475;28;87937;-92
2023/01/10 00:21:34;;;;;;;;;;;6.90;99.90;7.50;100080.00;;;;344601;28;83245;-91
2023/01/10 00:21:46;;;;;;;;;;;6.90;99.90;7.40;100074.00;;;;345957;28;88542;-92
2023/01/10 00:22:04;;;;;;;;;;;6.90;99.90;7.50;100077.00;;;;346400;28;82568;-90
2023/01/10 00:22:18;;;;;;;;;;;6.90;99.90;7.60;100080.00;;;;345893;28;88114;-91
2023/01/10 00:22:30;;;;;;;;;;;7.00;99.90;7.60;100085.00;;;;344948;28;83324;-92
2023/01/10 00:22:42;;;;;;;;;;;6.90;99.90;7.60;100078.00;;;;346772;28;89898;-92
2023/01/10 00:22:53;;;;;;;;;;;7.00;99.90;7.60;100076.00;;;;347489;28;82419;-92
2023/01/10 00:23:05;;;;;;;;;;;6.90;99.90;7.60;100078.00;;;;347517;28;86439;-90
2023/01/10 00:23:18;;;;;;;;;;;7.00;99.90;7.50;100075.00;;;;346477;28;82403;-91
2023/01/10 00:23:30;;;;;;;;;;;7.00;99.90;7.60;100083.00;;;;344922;28;89228;-91
2023/01/10 00:23:43;;;;;;;;;;;7.00;99.90;7.60;100077.00;;;;344597;28;83553;-92
2023/01/10 00:23:57;;;;;;;;;;;7.00;99.90;7.60;100078.00;;;;343083;28;87551;-91
2023/01/10 00:24:17;;;;;;;;;;;7.00;99.90;7.60;100075.00;;;;343362;28;83403;-91
2023/01/10 00:24:29;;;;;;;;;;;7.00;99.90;7.60;100086.00;;;;344414;28;88810;-92
2023/01/10 00:24:42;;;;;;;;;;;7.00;99.90;7.60;100085.00;;;;343122;28;83582;-92
2023/01/10 00:24:54;;;;;;;;;;;7.00;99.90;7.60;100077.00;;;;344206;28;89544;-92
2023/01/10 00:25:06;;;;;;;;;;;7.00;99.90;7.50;100087.00;;;;344405;28;83587;-91
2023/01/10 00:25:20;;;;;;;;;;;7.00;99.90;7.40;100084.00;;;;345130;28;87278;-92
2023/01/10 00:25:33;;;;;;;;;;;7.00;99.90;7.40;100086.00;;;;345589;28;83615;-91
2023/01/10 00:25:45;;;;;;;;;;;7.00;99.90;7.40;100082.00;;;;344329;28;89148;-91
2023/01/10 00:25:56;;;;;;;;;;;7.00;99.90;7.40;100085.00;;;;344842;28;83420;-91
2023/01/10 00:26:09;;;;;;;;;;;7.00;99.90;7.50;100092.00;;;;344180;28;90423;-92
2023/01/10 00:26:21;;;;;;;;;;;7.00;99.90;7.50;100087.00;;;;345959;28;83371;-91
2023/01/10 00:26:32;;;;;;;;;;;7.00;99.90;7.50;100088.00;;;;342883;28;92216;-92
2023/01/10 00:26:49;;;;;;;;;;;7.00;99.90;7.60;100088.00;;;;344770;28;82406;-92
2023/01/10 00:27:01;;;;;;;;;;;7.00;99.90;7.40;100091.00;;;;345643;28;89171;-91
2023/01/10 00:27:19;;;;;;;;;;;7.00;99.90;7.40;100092.00;;;;344862;28;82430;-91
2023/01/10 00:27:31;;;;;;;;;;;7.00;99.90;7.50;100087.00;;;;345303;28;87224;-91
2023/01/10 00:27:44;;;;;;;;;;;7.00;99.90;7.40;100085.00;;;;344479;28;83499;-92
2023/01/10 00:28:16;;;;;;;;;;;7.00;99.90;7.50;100088.00;;;;342422;28;90284;-92
2023/01/10 00:28:27;;;;;;;;;;;7.00;99.90;7.60;100082.00;;;;342103;28;83114;-91
2023/01/10 00:28:40;;;;;;;;;;;7.00;99.90;7.60;100081.00;;;;342902;28;89699;-91
2023/01/10 00:28:52;;;;;;;;;;;7.00;99.90;7.50;100087.00;;;;344618;28;82444;-91
2023/01/10 00:29:06;;;;;;;;;;;7.00;99.90;7.50;100085.00;;;;344338;28;86590;-91
2023/01/10 00:29:28;;;;;;;;;;;7.00;99.90;7.50;100088.00;;;;344767;28;83488;-91
2023/01/10 00:29:39;;;;;;;;;;;7.00;99.90;7.40;100085.00;;;;344264;28;90843;-92
2023/01/10 00:29:51;;;;;;;;;;;7.00;99.90;7.40;100079.00;;;;344713;28;83425;-91
2023/01/10 00:30:12;;;;;;;;;;;7.00;99.90;7.40;100080.00;;;;345698;28;88132;-91
2023/01/10 00:30:24;;;;;;;;;;;6.90;99.90;7.30;100087.00;;;;343001;28;82625;-91
2023/01/10 00:30:37;;;;;;;;;;;7.00;99.90;7.30;100078.00;;;;345513;28;89089;-91
2023/01/10 00:31:12;;;;;;;;;;;6.90;99.90;7.30;100085.00;;;;346073;28;83237;-90
2023/01/10 00:31:22;;;;;;;;;;;6.90;99.90;7.30;100095.00;;;;345548;28;90574;-91
2023/01/10 00:31:34;;;;;;;;;;;6.90;99.90;7.30;100093.00;;;;345834;28;83487;-92
2023/01/10 00:31:46;;;;;;;;;;;6.80;99.90;7.30;100093.00;;;;344064;28;92031;-91
2023/01/10 00:31:59;;;;;;;;;;;6.90;99.90;7.40;100085.00;;;;344484;28;82581;-91
2023/01/10 00:32:10;;;;;;;;;;;6.90;99.90;7.40;100069.00;;;;347041;28;88595;-92
2023/01/10 00:32:22;;;;;;;;;;;6.90;99.90;7.40;100079.00;;;;346145;28;83327;-92
2023/01/10 00:32:34;;;;;;;;;;;6.90;99.90;7.30;100076.00;;;;344437;28;87653;-92
2023/01/10 00:32:46;;;;;;;;;;;6.90;99.90;7.30;100092.00;;;;344566;28;82608;-91
2023/01/10 00:32:57;;;;;;;;;;;6.90;99.90;7.30;100098.00;;;;344365;28;86642;-92
2023/01/10 00:33:16;;;;;;;;;;;6.90;99.90;7.30;100097.00;;;;344859;28;82263;-91
2023/01/10 00:33:30;;;;;;;;;;;6.90;99.90;7.30;100103.00;;;;342864;28;90354;-91
2023/01/10 00:33:42;;;;;;;;;;;6.90;99.90;7.30;100086.00;;;;344299;28;83519;-91
2023/01/10 00:33:54;;;;;;;;;;;6.90;99.90;7.40;100076.00;;;;344324;28;89348;-92
2023/01/10 00:34:06;;;;;;;;;;;6.90;99.90;7.40;100095.00;;;;346134;28;83417;-91
2023/01/10 00:34:18;;;;;;;;;;;6.90;99.90;7.40;100092.00;;;;345561;28;89368;-92
2023/01/10 00:34:31;;;;;;;;;;;6.90;99.90;7.40;100091.00;;;;344730;28;83371;-91
2023/01/10 00:34:43;;;;;;;;;;;6.90;99.90;7.50;100088.00;;;;344129;28;91754;-91
2023/01/10 00:34:55;;;;;;;;;;;6.90;99.90;7.50;100090.00;;;;343246;28;82518;-91
2023/01/10 00:35:08;;;;;;;;;;;6.90;99.90;7.50;100084.00;;;;342959;28;89497;-91
2023/01/10 00:35:19;;;;;;;;;;;6.90;99.90;7.50;100097.00;;;;344542;28;83276;-91
2023/01/10 00:35:31;;;;;;;;;;;6.90;99.90;7.50;100090.00;;;;341395;28;91950;-91
2023/01/10 00:35:43;;;;;;;;;;;6.90;99.90;7.50;100095.00;;;;343320;28;82451;-91
2023/01/10 00:35:55;;;;;;;;;;;6.90;99.90;7.50;100096.00;;;;344173;28;89500;-91
2023/01/10 00:36:07;;;;;;;;;;;6.90;99.90;7.50;100095.00;;;;343318;28;82389;-91
2023/01/10 00:36:19;;;;;;;;;;;6.90;99.90;7.50;100094.00;;;;344280;28;88820;-91
2023/01/10 00:36:30;;;;;;;;;;;6.90;99.90;7.50;100093.00;;;;344736;28;82376;-91
2023/01/10 00:36:44;;;;;;;;;;;6.90;99.90;7.40;100091.00;;;;342814;28;91223;-92
2023/01/10 00:36:56;;;;;;;;;;;6.90;99.90;7.40;100094.00;;;;341951;28;83364;-92
2023/01/10 00:37:08;;;;;;;;;;;6.90;99.90;7.40;100094.00;;;;342965;28;89125;-91
2023/01/10 00:37:19;;;;;;;;;;;6.90;99.90;7.40;100098.00;;;;344442;28;83609;-91
2023/01/10 00:37:31;;;;;;;;;;;6.90;99.90;7.30;100099.00;;;;342694;28;91211;-91
2023/01/10 00:37:43;;;;;;;;;;;6.90;99.90;7.40;100099.00;;;;344693;28;83482;-91
2023/01/10 00:38:04;;;;;;;;;;;6.90;99.90;7.30;100102.00;;;;345490;28;91729;-91
2023/01/10 00:38:16;;;;;;;;;;;6.90;99.90;7.40;100109.00;;;;345782;28;82645;-92
2023/01/10 00:38:29;;;;;;;;;;;6.90;99.90;7.30;100106.00;;;;342692;28;90558;-91
2023/01/10 00:38:41;;;;;;;;;;;6.90;99.90;7.40;100102.00;;;;344686;28;83363;-92
2023/01/10 00:38:53;;;;;;;;;;;6.90;99.90;7.40;100106.00;;;;347059;28;88203;-91
2023/01/10 00:39:05;;;;;;;;;;;6.90;99.90;7.40;100102.00;;;;343390;28;82343;-91
2023/01/10 00:39:19;;;;;;;;;;;6.90;99.90;7.40;100112.00;;;;344181;28;91983;-91
2023/01/10 00:39:31;;;;;;;;;;;6.90;99.90;7.50;100104.00;;;;345853;28;83880;-91
2023/01/10 00:39:42;;;;;;;;;;;6.90;99.90;7.40;100117.00;;;;346742;28;90701;-91
2023/01/10 00:39:54;;;;;;;;;;;6.90;99.90;7.40;100119.00;;;;347445;28;83440;-92
2023/01/10 00:40:09;;;;;;;;;;;6.90;99.90;7.50;100115.00;;;;345615;28;89679;-90
2023/01/10 00:40:21;;;;;;;;;;;6.90;99.90;7.50;100111.00;;;;343510;28;83384;-92
2023/01/10 00:40:33;;;;;;;;;;;6.90;99.90;7.50;100113.00;;;;342968;28;89406;-91
2023/01/10 00:40:45;;;;;;;;;;;6.90;99.90;7.40;100122.00;;;;345793;28;83550;-91
2023/01/10 00:40:57;;;;;;;;;;;6.90;99.90;7.40;100109.00;;;;344350;28;88161;-91
2023/01/10 00:43:55;;;;;;;;;;;6.90;99.90;7.50;100116.00;;;;345769;28;83402;-92
2023/01/10 00:43:57;;;;;;;;;;;7.00;99.90;7.50;100123.00;;;;345763;28;86734;-91
2023/01/10 00:44:08;;;;;;;;;;;7.00;99.90;7.50;100128.00;;;;345907;28;83579;-91
2023/01/10 00:44:20;;;;;;;;;;;7.00;99.90;7.50;100130.00;;;;342697;28;88830;-92
2023/01/10 00:44:32;;;;;;;;;;;7.00;99.90;7.60;100127.00;;;;343461;28;83391;-92
2023/01/10 00:44:45;;;;;;;;;;;7.00;99.90;7.50;100128.00;;;;342906;28;89243;-91
2023/01/10 00:44:57;;;;;;;;;;;7.00;99.90;7.50;100123.00;;;;345852;28;83357;-91
2023/01/10 00:45:10;;;;;;;;;;;7.00;99.90;7.50;100121.00;;;;345659;28;87589;-91
2023/01/10 00:45:23;;;;;;;;;;;7.00;99.90;7.50;100130.00;;;;344476;28;82667;-91
2023/01/10 00:45:35;;;;;;;;;;;7.00;99.90;7.50;100125.00;;;;343595;28;87787;-92
2023/01/10 00:45:47;;;;;;;;;;;7.00;99.90;7.50;100128.00;;;;344479;28;83532;-92
2023/01/10 00:46:01;;;;;;;;;;;7.00;99.90;7.50;100124.00;;;;344441;28;88076;-91
2023/01/10 00:46:13;;;;;;;;;;;7.00;99.90;7.50;100127.00;;;;347081;28;83411;-91
2023/01/10 00:46:26;;;;;;;;;;;7.10;99.90;7.50;100127.00;;;;346913;28;89664;-91
2023/01/10 00:46:38;;;;;;;;;;;7.00;99.90;7.50;100127.00;;;;345888;28;83593;-92
2023/01/10 00:46:52;;;;;;;;;;;7.10;99.90;7.60;100132.00;;;;345665;28;88100;-91
2023/01/10 00:47:04;;;;;;;;;;;7.00;99.90;7.60;100126.00;;;;345783;28;83559;-91
2023/01/10 00:47:17;;;;;;;;;;;7.00;99.90;7.60;100126.00;;;;345633;28;88596;-91
2023/01/10 00:47:29;;;;;;;;;;;7.00;99.90;7.60;100124.00;;;;343355;28;82516;-91
2023/01/10 00:47:41;;;;;;;;;;;7.10;99.90;7.60;100126.00;;;;342471;28;90067;-91
2023/01/10 00:47:53;;;;;;;;;;;7.10;99.90;7.60;100124.00;;;;344348;28;83545;-91
2023/01/10 00:48:05;;;;;;;;;;;7.10;99.90;7.60;100132.00;;;;345424;28;89996;-91
2023/01/10 00:48:17;;;;;;;;;;;7.10;99.90;7.60;100125.00;;;;344443;28;82375;-91
2023/01/10 00:48:29;;;;;;;;;;;7.10;99.90;7.60;100130.00;;;;344316;28;87861;-92
2023/01/10 00:48:40;;;;;;;;;;;7.10;99.90;7.60;100124.00;;;;345916;28;83511;-91
2023/01/10 00:48:52;;;;;;;;;;;7.10;99.90;7.50;100130.00;;;;344172;28;88179;-91
2023/01/10 00:49:07;;;;;;;;;;;7.10;99.90;7.50;100132.00;;;;343357;28;83256;-91
2023/01/10 00:49:18;;;;;;;;;;;7.10;99.90;7.60;100130.00;;;;344099;28;90776;-91
2023/01/10 00:49:30;;;;;;;;;;;7.10;99.90;7.60;100125.00;;;;344081;28;83472;-91
2023/01/10 00:49:42;;;;;;;;;;;7.10;99.90;7.50;100133.00;;;;345628;28;89945;-92
2023/01/10 00:49:54;;;;;;;;;;;7.10;99.90;7.50;100133.00;;;;344776;28;82361;-91
2023/01/10 00:50:07;;;;;;;;;;;7.10;99.90;7.50;100143.00;;;;344112;28;89546;-90
2023/01/10 00:50:19;;;;;;;;;;;7.10;99.90;7.50;100135.00;;;;344422;28;83580;-91
2023/01/10 00:50:30;;;;;;;;;;;7.10;99.90;7.50;100141.00;;;;344310;28;87442;-91
2023/01/10 00:50:42;;;;;;;;;;;7.10;99.90;7.50;100141.00;;;;345888;28;83352;-92
2023/01/10 00:50:54;;;;;;;;;;;7.10;99.90;7.40;100140.00;;;;343945;28;91699;-91
2023/01/10 00:51:06;;;;;;;;;;;7.10;99.90;7.40;100141.00;;;;344714;28;83163;-91
2023/01/10 00:51:18;;;;;;;;;;;7.00;99.90;7.40;100139.00;;;;344253;28;89439;-91
2023/01/10 00:51:29;;;;;;;;;;;7.10;99.90;7.40;100140.00;;;;345776;28;83592;-91
2023/01/10 00:51:42;;;;;;;;;;;7.00;99.90;7.50;100139.00;;;;344291;28;90445;-91
2023/01/10 00:51:57;;;;;;;;;;;7.00;99.90;7.50;100135.00;;;;343187;28;82382;-91
2023/01/10 00:52:08;;;;;;;;;;;7.00;99.90;7.50;100139.00;;;;342997;28;87748;-91
2023/01/10 00:52:20;;;;;;;;;;;7.00;99.90;7.50;100139.00;;;;347059;28;83559;-91
2023/01/10 00:52:32;;;;;;;;;;;7.00;99.90;7.60;100138.00;;;;344068;28;90095;-91
2023/01/10 00:52:44;;;;;;;;;;;7.00;99.90;7.60;100138.00;;;;344818;28;83614;-91
2023/01/10 00:52:56;;;;;;;;;;;7.00;99.90;7.60;100146.00;;;;345650;28;88649;-92
2023/01/10 00:53:07;;;;;;;;;;;7.00;99.90;7.60;100141.00;;;;345918;28;83464;-91
2023/01/10 00:53:20;;;;;;;;;;;7.00;99.90;7.60;100143.00;;;;342797;28;90454;-91
2023/01/10 00:53:43;;;;;;;;;;;7.00;99.90;7.50;100146.00;;;;344522;28;83499;-91
2023/01/10 00:53:55;;;;;;;;;;;7.00;99.90;7.60;100147.00;;;;345620;28;90118;-91
2023/01/10 00:54:10;;;;;;;;;;;7.00;99.90;7.60;100149.00;;;;346046;28;83382;-90
2023/01/10 00:54:22;;;;;;;;;;;7.00;99.90;7.60;100150.00;;;;344033;28;91428;-92
2023/01/10 00:54:34;;;;;;;;;;;7.00;99.90;7.60;100147.00;;;;343207;28;83568;-91
2023/01/10 00:54:45;;;;;;;;;;;7.00;99.90;7.60;100150.00;;;;343917;28;90873;-91
2023/01/10 00:54:57;;;;;;;;;;;7.10;99.90;7.60;100149.00;;;;344841;28;82380;-92
2023/01/10 00:55:09;;;;;;;;;;;7.10;99.90;7.60;100144.00;;;;344440;28;89444;-91
2023/01/10 00:55:21;;;;;;;;;;;7.10;99.90;7.60;100147.00;;;;345539;28;83368;-91
2023/01/10 00:55:33;;;;;;;;;;;7.10;99.90;7.50;100153.00;;;;348197;27;90182;-91
2023/01/10 00:55:45;;;;;;;;;;;7.00;99.90;7.60;100145.00;;;;349017;27;83451;-91
2023/01/10 00:55:56;;;;;;;;;;;7.10;99.90;7.60;100143.00;;;;345782;28;89365;-91
2023/01/10 00:56:08;;;;;;;;;;;7.10;99.90;7.60;100148.00;;;;347588;28;82355;-92
2023/01/10 00:56:20;;;;;;;;;;;7.10;99.90;7.60;100153.00;;;;344355;28;89489;-92
2023/01/10 00:56:32;;;;;;;;;;;7.10;99.90;7.70;100149.00;;;;343548;28;82481;-92
2023/01/10 00:56:44;;;;;;;;;;;7.10;99.90;7.70;100151.00;;;;343001;28;88719;-91
2023/01/10 00:56:55;;;;;;;;;;;7.10;99.90;7.70;100147.00;;;;344791;28;83433;-91
2023/01/10 00:57:07;;;;;;;;;;;7.10;99.90;7.60;100151.00;;;;342916;28;88095;-91
2023/01/10 00:57:19;;;;;;;;;;;7.10;99.90;7.60;100146.00;;;;343499;28;83213;-91
2023/01/10 00:57:31;;;;;;;;;;;7.10;99.90;7.60;100149.00;;;;344316;28;87633;-91
2023/01/10 00:57:43;;;;;;;;;;;7.10;99.90;7.60;100155.00;;;;346017;28;82651;-91
2023/01/10 00:57:54;;;;;;;;;;;7.10;99.90;7.60;100147.00;;;;344369;28;90456;-91
2023/01/10 00:58:10;;;;;;;;;;;7.10;99.90;7.60;100154.00;;;;343431;28;82506;-90
2023/01/10 00:58:22;;;;;;;;;;;7.10;99.90;7.60;100154.00;;;;344057;28;90545;-91
2023/01/10 00:58:34;;;;;;;;;;;7.10;99.90;7.70;100157.00;;;;343452;28;83507;-91
2023/01/10 00:58:45;;;;;;;;;;;7.10;99.90;7.70;100152.00;;;;344420;28;87933;-92
2023/01/10 00:58:57;;;;;;;;;;;7.10;99.90;7.70;100150.00;;;;344525;28;82601;-91
2023/01/10 00:59:09;;;;;;;;;;;7.10;99.90;7.60;100154.00;;;;344346;28;92079;-92
2023/01/10 00:59:21;;;;;;;;;;;7.10;99.90;7.60;100159.00;;;;345949;28;83581;-91
2023/01/10 00:59:33;;;;;;;;;;;7.10;99.90;7.60;100157.00;;;;344044;28;88880;-90
2023/01/10 00:59:45;;;;;;;;;;;7.10;99.90;7.60;100157.00;;;;346126;28;82713;-91
2023/01/10 00:59:57;;;;;;;;;;;7.10;99.90;7.60;100154.00;;;;345797;28;90339;-91
2023/01/10 01:00:10;;;;;;;;;;;7.10;99.90;7.70;100155.00;;;;346171;28;82533;-91
2023/01/10 01:00:22;;;;;;;;;;;7.10;99.90;7.70;100150.00;;;;344241;28;88900;-91
2023/01/10 01:00:34;;;;;;;;;;;7.10;99.90;7.60;100152.00;;;;344771;28;83420;-91
2023/01/10 01:00:48;;;;;;;;;;;7.10;99.90;7.60;100153.00;;;;346872;28;89595;-91
2023/01/10 01:01:00;;;;;;;;;;;7.10;99.90;7.60;100153.00;;;;343302;28;83360;-91
2023/01/10 01:01:12;;;;;;;;;;;7.10;99.90;7.60;100153.00;;;;343723;28;88440;-91
2023/01/10 01:01:24;;;;;;;;;;;7.10;99.90;7.60;100160.00;;;;343353;28;83318;-91
2023/01/10 01:01:36;;;;;;;;;;;7.10;99.90;7.60;100157.00;;;;345447;28;91462;-92
2023/01/10 01:01:49;;;;;;;;;;;7.10;99.90;7.60;100156.00;;;;344792;28;82296;-92
2023/01/10 01:02:01;;;;;;;;;;;7.10;99.90;7.70;100163.00;;;;345319;28;90514;-92
2023/01/10 01:02:13;;;;;;;;;;;7.10;99.90;7.70;100161.00;;;;345854;28;83264;-92
2023/01/10 01:02:25;;;;;;;;;;;7.10;99.90;7.70;100169.00;;;;346744;28;90367;-91
2023/01/10 01:02:37;;;;;;;;;;;7.10;99.90;7.70;100158.00;;;;347531;28;83378;-92
2023/01/10 01:02:50;;;;;;;;;;;7.10;99.90;7.70;100156.00;;;;344244;28;89575;-91
2023/01/10 01:03:02;;;;;;;;;;;7.10;99.90;7.70;100158.00;;;;343146;28;83588;-92
2023/01/10 01:03:15;;;;;;;;;;;7.10;99.90;7.70;100157.00;;;;342622;28;89894;-91
2023/01/10 01:03:27;;;;;;;;;;;7.10;99.90;7.70;100168.00;;;;344750;28;82278;-91
2023/01/10 01:03:38;;;;;;;;;;;7.20;99.90;7.70;100163.00;;;;345634;28;89686;-91
2023/01/10 01:03:50;;;;;;;;;;;7.20;99.90;7.60;100156.00;;;;344572;28;83268;-91
2023/01/10 01:04:02;;;;;;;;;;;7.20;99.90;7.60;100164.00;;;;344349;28;89946;-92
2023/01/10 01:04:14;;;;;;;;;;;7.10;99.90;7.70;100154.00;;;;344383;28;83594;-91
2023/01/10 01:04:26;;;;;;;;;;;7.20;99.90;7.70;100161.00;;;;344208;28;88472;-92
2023/01/10 01:04:38;;;;;;;;;;;7.10;99.90;7.60;100158.00;;;;343514;28;83333;-92
2023/01/10 01:04:50;;;;;;;;;;;7.20;99.90;7.70;100162.00;;;;344372;28;86871;-91
2023/01/10 01:05:02;;;;;;;;;;;7.10;99.90;7.70;100169.00;;;;345864;28;83371;-92
2023/01/10 01:05:13;;;;;;;;;;;7.20;99.90;7.70;100173.00;;;;344093;28;88858;-91
2023/01/10 01:05:26;;;;;;;;;;;7.20;99.90;7.70;100167.00;;;;344698;28;83249;-91
2023/01/10 01:05:41;;;;;;;;;;;7.20;99.90;7.60;100157.00;;;;343304;28;89217;-91
2023/01/10 01:05:53;;;;;;;;;;;7.20;99.90;7.70;100157.00;;;;343056;28;83277;-91
2023/01/10 01:06:05;;;;;;;;;;;7.20;99.90;7.60;100169.00;;;;342561;28;91395;-91
2023/01/10 01:06:17;;;;;;;;;;;7.20;99.90;7.70;100164.00;;;;341942;28;82371;-92
2023/01/10 01:06:29;;;;;;;;;;;7.20;99.90;7.60;100166.00;;;;344245;28;88295;-92
2023/01/10 01:06:45;;;;;;;;;;;7.20;99.90;7.60;100159.00;;;;343146;28;83464;-91
2023/01/10 01:06:57;;;;;;;;;;;7.20;99.90;7.70;100166.00;;;;342978;28;89475;-92
2023/01/10 01:07:10;;;;;;;;;;;7.10;99.90;7.70;100166.00;;;;344741;28;83428;-92
2023/01/10 01:07:22;;;;;;;;;;;7.20;99.90;7.70;100164.00;;;;343031;28;87804;-91
2023/01/10 01:07:34;;;;;;;;;;;7.20;99.90;7.70;100171.00;;;;344657;28;83369;-91
2023/01/10 01:07:48;;;;;;;;;;;7.20;99.90;7.70;100162.00;;;;344299;28;89263;-92